createdAt,value
2019-03-26T00:00:08.979Z,85.40
2019-03-26T00:02:38.524Z,85.50
2019-03-26T00:05:08.030Z,85.50
2019-03-26T00:07:37.520Z,85.50
2019-03-26T00:10:07.090Z,85.60
2019-03-26T00:12:36.588Z,85.60
2019-03-26T00:15:06.704Z,85.40
2019-03-26T00:17:36.183Z,85.40
2019-03-26T00:20:06.618Z,85.40
2019-03-26T00:22:36.088Z,85.50
2019-03-26T00:25:06.272Z,85.50
2019-03-26T00:27:35.792Z,85.70
2019-03-26T00:30:05.970Z,85.50
2019-03-26T00:32:35.448Z,85.70
2019-03-26T00:35:05.452Z,85.70
2019-03-26T00:37:34.852Z,85.60
2019-03-26T00:40:05.360Z,85.60
2019-03-26T00:42:34.944Z,85.60
2019-03-26T00:45:05.516Z,85.60
2019-03-26T00:47:35.016Z,85.60
2019-03-26T00:50:06.027Z,85.60
2019-03-26T00:52:35.592Z,85.80
2019-03-26T00:55:06.997Z,85.80
2019-03-26T00:57:36.521Z,85.80
2019-03-26T01:00:08.032Z,85.60
2019-03-26T01:02:37.494Z,86.40
2019-03-26T01:05:08.289Z,85.60
2019-03-26T01:07:38.018Z,85.50
2019-03-26T01:10:09.294Z,85.60
2019-03-26T01:12:38.778Z,85.80
2019-03-26T01:15:08.329Z,85.80
2019-03-26T01:17:37.825Z,85.60
2019-03-26T01:20:08.962Z,85.50
2019-03-26T01:22:38.417Z,85.60
2019-03-26T01:25:07.884Z,85.50
2019-03-26T01:27:37.398Z,85.50
2019-03-26T01:30:07.802Z,85.50
2019-03-26T01:32:37.498Z,85.20
2019-03-26T01:35:07.354Z,85.30
2019-03-26T01:37:36.767Z,85.30
2019-03-26T01:40:06.480Z,85.30
2019-03-26T01:42:35.883Z,85.40
2019-03-26T01:45:07.242Z,85.40
2019-03-26T01:47:36.679Z,85.40
2019-03-26T01:50:06.195Z,85.50
2019-03-26T01:52:35.751Z,85.40
2019-03-26T01:55:06.630Z,85.50
2019-03-26T01:57:36.112Z,85.40
2019-03-26T02:00:06.580Z,85.50
2019-03-26T02:02:36.091Z,85.40
2019-03-26T02:05:07.270Z,85.20
2019-03-26T02:07:38.911Z,85.30
2019-03-26T02:10:07.862Z,85.40
2019-03-26T02:12:37.344Z,85.30
2019-03-26T02:15:08.555Z,85.40
2019-03-26T02:17:38.058Z,85.40
2019-03-26T02:20:09.156Z,85.40
2019-03-26T02:22:38.722Z,85.40
2019-03-26T02:25:08.240Z,85.50
2019-03-26T02:27:37.668Z,85.40
2019-03-26T02:30:07.356Z,85.50
2019-03-26T02:32:36.752Z,85.40
2019-03-26T02:35:17.837Z,85.50
2019-03-26T02:37:37.428Z,85.60
2019-03-26T02:40:07.519Z,85.40
2019-03-26T02:42:36.939Z,85.60
2019-03-26T02:45:06.669Z,85.50
2019-03-26T02:47:36.121Z,85.60
2019-03-26T02:50:08.495Z,85.50
2019-03-26T02:52:38.008Z,85.30
2019-03-26T02:55:08.108Z,85.40
2019-03-26T02:57:37.616Z,85.10
2019-03-26T03:00:09.302Z,85.20
2019-03-26T03:02:38.759Z,85.10
2019-03-26T03:05:08.651Z,85.20
2019-03-26T03:07:38.132Z,85.30
2019-03-26T03:10:08.587Z,85.10
2019-03-26T03:12:38.222Z,85.10
2019-03-26T03:15:07.809Z,85.00
2019-03-26T03:17:37.199Z,85.00
2019-03-26T03:20:06.856Z,85.00
2019-03-26T03:22:36.292Z,85.00
2019-03-26T03:25:05.816Z,85.20
2019-03-26T03:27:35.278Z,84.70
2019-03-26T03:30:06.687Z,84.70
2019-03-26T03:32:36.227Z,84.60
2019-03-26T03:35:07.020Z,84.70
2019-03-26T03:37:36.571Z,84.30
2019-03-26T03:40:06.987Z,84.30
2019-03-26T03:42:36.575Z,84.10
2019-03-26T03:45:08.519Z,84.30
2019-03-26T03:47:38.618Z,84.10
2019-03-26T03:50:09.165Z,84.40
2019-03-26T03:52:40.026Z,83.90
2019-03-26T03:55:09.853Z,83.90
2019-03-26T03:57:39.657Z,83.90
2019-03-26T04:00:20.798Z,83.90
2019-03-26T04:02:50.232Z,83.70
2019-03-26T04:05:19.641Z,83.90
2019-03-26T04:07:49.061Z,84.00
2019-03-26T04:10:18.589Z,83.80
2019-03-26T04:12:48.065Z,83.50
2019-03-26T04:15:17.449Z,83.50
2019-03-26T04:17:46.890Z,83.20
2019-03-26T04:20:16.478Z,83.50
2019-03-26T04:22:45.909Z,83.60
2019-03-26T04:25:15.439Z,83.60
2019-03-26T04:27:45.162Z,83.40
2019-03-26T04:30:29.006Z,83.60
2019-03-26T04:32:58.568Z,83.60
2019-03-26T04:35:27.968Z,83.60
2019-03-26T04:37:57.520Z,83.50
2019-03-26T04:40:26.957Z,83.40
2019-03-26T04:42:56.426Z,83.40
2019-03-26T04:45:25.971Z,83.40
2019-03-26T04:47:55.485Z,83.40
2019-03-26T04:50:24.961Z,83.30
2019-03-26T04:52:54.462Z,83.30
2019-03-26T04:55:24.077Z,83.00
2019-03-26T04:57:53.513Z,83.20
2019-03-26T05:00:23.095Z,83.20
2019-03-26T05:02:52.601Z,83.20
2019-03-26T05:05:22.097Z,83.10
2019-03-26T05:07:51.626Z,83.00
2019-03-26T05:10:21.173Z,82.80
2019-03-26T05:12:50.717Z,82.70
2019-03-26T05:15:20.137Z,82.50
2019-03-26T05:17:49.699Z,82.50
2019-03-26T05:20:19.176Z,82.50
2019-03-26T05:22:48.884Z,83.20
2019-03-26T05:25:18.289Z,82.50
2019-03-26T05:27:47.741Z,82.50
2019-03-26T05:30:17.218Z,82.50
2019-03-26T05:32:46.661Z,82.70
2019-03-26T05:35:16.243Z,82.80
2019-03-26T05:37:45.729Z,82.90
2019-03-26T05:40:15.249Z,83.00
2019-03-26T05:42:44.837Z,83.10
2019-03-26T05:45:14.473Z,83.20
2019-03-26T05:47:43.925Z,83.30
2019-03-26T05:50:13.601Z,84.00
2019-03-26T05:52:43.567Z,83.40
2019-03-26T05:55:13.145Z,83.40
2019-03-26T05:57:42.709Z,83.50
2019-03-26T06:00:15.137Z,83.60
2019-03-26T06:02:44.573Z,83.70
2019-03-26T06:05:14.154Z,83.80
2019-03-26T06:07:43.581Z,83.90
2019-03-26T06:10:13.382Z,84.00
2019-03-26T06:12:42.785Z,84.00
2019-03-26T06:15:12.505Z,83.80
2019-03-26T06:17:42.032Z,83.90
2019-03-26T06:20:12.882Z,84.10
2019-03-26T06:22:42.439Z,84.30
2019-03-26T06:25:12.341Z,84.30
2019-03-26T06:27:41.855Z,84.30
2019-03-26T06:30:11.722Z,84.30
2019-03-26T06:32:41.410Z,84.30
2019-03-26T06:35:11.185Z,84.40
2019-03-26T06:37:40.620Z,84.10
2019-03-26T06:40:10.895Z,84.20
2019-03-26T06:42:40.316Z,84.30
2019-03-26T06:45:11.034Z,84.30
2019-03-26T06:47:40.530Z,84.40
2019-03-26T06:50:11.961Z,84.40
2019-03-26T06:52:41.500Z,84.60
2019-03-26T06:55:11.179Z,84.60
2019-03-26T06:57:40.711Z,84.60
2019-03-26T07:00:11.885Z,84.40
2019-03-26T07:02:41.914Z,84.30
2019-03-26T07:05:11.613Z,84.40
2019-03-26T07:07:41.295Z,84.30
2019-03-26T07:10:11.930Z,84.40
2019-03-26T07:12:41.437Z,84.20
2019-03-26T07:15:11.117Z,84.40
2019-03-26T07:17:40.642Z,84.30
2019-03-26T07:20:10.481Z,84.40
2019-03-26T07:22:40.041Z,84.70
2019-03-26T07:25:10.373Z,84.80
2019-03-26T07:27:39.857Z,84.90
2019-03-26T07:30:11.568Z,84.90
2019-03-26T07:32:41.129Z,84.80
2019-03-26T07:35:10.777Z,85.00
2019-03-26T07:37:45.632Z,85.20
2019-03-26T07:40:11.843Z,85.30
2019-03-26T07:42:41.313Z,85.30
2019-03-26T07:45:11.125Z,85.30
2019-03-26T07:47:40.640Z,85.10
2019-03-26T07:50:10.202Z,85.40
2019-03-26T07:52:39.709Z,85.30
2019-03-26T07:55:09.337Z,85.30
2019-03-26T07:57:38.810Z,85.30
2019-03-26T08:00:10.682Z,85.40
2019-03-26T08:02:40.145Z,85.00
2019-03-26T08:05:10.203Z,85.10
2019-03-26T08:07:39.597Z,85.00
2019-03-26T08:10:09.852Z,84.90
2019-03-26T08:12:39.330Z,84.90
2019-03-26T08:15:09.033Z,84.90
2019-03-26T08:17:38.912Z,85.10
2019-03-26T08:20:08.742Z,85.20
2019-03-26T08:22:39.878Z,85.20
2019-03-26T08:25:11.817Z,85.30
2019-03-26T08:27:41.214Z,85.40
2019-03-26T08:30:11.050Z,85.20
2019-03-26T08:32:40.456Z,85.30
2019-03-26T08:35:09.887Z,85.10
2019-03-26T08:37:39.276Z,85.20
2019-03-26T08:40:09.515Z,85.50
2019-03-26T08:42:38.918Z,85.50
2019-03-26T08:45:10.083Z,85.70
2019-03-26T08:47:39.579Z,86.20
2019-03-26T08:50:09.313Z,85.50
2019-03-26T08:52:38.851Z,85.90
2019-03-26T08:55:09.825Z,86.40
2019-03-26T08:57:39.297Z,86.00
2019-03-26T09:00:11.264Z,86.50
2019-03-26T09:02:40.845Z,86.60
2019-03-26T09:05:10.507Z,86.40
2019-03-26T09:07:40.044Z,85.40
2019-03-26T09:10:10.833Z,85.90
2019-03-26T09:12:40.367Z,85.50
2019-03-26T09:15:14.065Z,85.50
2019-03-26T09:17:44.433Z,85.50
2019-03-26T09:20:13.299Z,85.10
2019-03-26T09:22:42.893Z,85.00
2019-03-26T09:25:12.674Z,84.40
2019-03-26T09:27:42.169Z,84.60
2019-03-26T09:30:12.708Z,84.40
2019-03-26T09:32:42.241Z,84.80
2019-03-26T09:35:11.967Z,83.90
2019-03-26T09:37:41.673Z,84.50
2019-03-26T09:40:11.499Z,84.40
2019-03-26T09:42:41.005Z,84.50
2019-03-26T09:45:11.346Z,84.80
2019-03-26T09:47:40.851Z,84.90
2019-03-26T09:50:11.788Z,84.90
2019-03-26T09:52:41.302Z,85.30
2019-03-26T09:55:11.100Z,85.60
2019-03-26T09:57:40.703Z,85.20
2019-03-26T10:00:11.734Z,84.70
2019-03-26T10:02:42.963Z,83.40
2019-03-26T10:05:13.006Z,84.40
2019-03-26T10:07:42.574Z,84.70
2019-03-26T10:10:12.874Z,84.90
2019-03-26T10:12:42.351Z,84.40
2019-03-26T10:15:11.999Z,84.60
2019-03-26T10:17:41.411Z,84.60
2019-03-26T10:20:11.329Z,84.90
2019-03-26T10:22:40.857Z,85.10
2019-03-26T10:25:11.201Z,84.30
2019-03-26T10:27:41.069Z,84.70
2019-03-26T10:30:12.766Z,83.90
2019-03-26T10:32:42.284Z,84.50
2019-03-26T10:35:12.033Z,84.00
2019-03-26T10:37:41.565Z,84.10
2019-03-26T10:40:12.605Z,84.30
2019-03-26T10:42:42.183Z,84.60
2019-03-26T10:45:11.673Z,85.10
2019-03-26T10:47:41.210Z,83.30
2019-03-26T10:50:10.821Z,84.10
2019-03-26T10:52:40.209Z,83.60
2019-03-26T10:55:09.842Z,82.80
2019-03-26T10:57:39.289Z,83.00
2019-03-26T11:00:08.853Z,82.40
2019-03-26T11:02:38.381Z,82.20
2019-03-26T11:05:08.302Z,82.80
2019-03-26T11:07:37.872Z,82.40
2019-03-26T11:10:08.383Z,83.50
2019-03-26T11:12:37.925Z,83.60
2019-03-26T11:15:10.361Z,84.50
2019-03-26T11:17:39.851Z,84.00
2019-03-26T11:20:10.572Z,82.60
2019-03-26T11:22:40.114Z,83.70
2019-03-26T11:25:12.164Z,84.00
2019-03-26T11:27:41.057Z,84.00
2019-03-26T11:30:10.737Z,84.00
2019-03-26T11:32:40.290Z,82.90
2019-03-26T11:35:10.380Z,82.70
2019-03-26T11:37:39.999Z,80.50
2019-03-26T11:40:09.844Z,80.50
2019-03-26T11:42:39.282Z,82.30
2019-03-26T11:45:09.782Z,83.10
2019-03-26T11:47:40.146Z,82.80
2019-03-26T11:50:10.192Z,82.00
2019-03-26T11:52:40.401Z,81.30
2019-03-26T11:55:10.969Z,82.60
2019-03-26T11:57:40.362Z,78.60
2019-03-26T12:00:12.795Z,81.10
2019-03-26T12:02:42.299Z,81.50
2019-03-26T12:05:12.129Z,80.80
2019-03-26T12:07:43.057Z,81.00
2019-03-26T12:10:12.896Z,81.50
2019-03-26T12:12:42.357Z,81.60
2019-03-26T12:15:12.373Z,78.60
2019-03-26T12:17:41.822Z,80.70
2019-03-26T12:20:11.592Z,81.20
2019-03-26T12:22:41.134Z,81.20
2019-03-26T12:25:10.732Z,80.30
2019-03-26T12:27:40.223Z,80.20
2019-03-26T12:30:12.443Z,80.50
2019-03-26T12:32:41.864Z,79.80
2019-03-26T12:35:14.437Z,80.80
2019-03-26T12:37:43.931Z,80.30
2019-03-26T12:40:13.645Z,78.40
2019-03-26T12:42:43.072Z,79.50
2019-03-26T12:45:14.101Z,80.00
2019-03-26T12:47:43.597Z,80.00
2019-03-26T12:50:13.369Z,79.40
2019-03-26T12:52:42.906Z,79.60
2019-03-26T12:55:12.417Z,79.70
2019-03-26T12:57:41.835Z,77.70
2019-03-26T13:00:11.548Z,79.60
2019-03-26T13:02:41.117Z,79.80
2019-03-26T13:05:10.654Z,79.30
2019-03-26T13:07:40.130Z,79.10
2019-03-26T13:10:13.974Z,78.50
2019-03-26T13:12:41.088Z,78.90
2019-03-26T13:15:10.676Z,79.10
2019-03-26T13:17:40.202Z,79.40
2019-03-26T13:20:09.708Z,78.90
2019-03-26T13:22:39.227Z,78.50
2019-03-26T13:25:09.384Z,78.10
2019-03-26T13:27:39.038Z,78.70
2019-03-26T13:30:09.164Z,78.20
2019-03-26T13:32:38.652Z,78.00
2019-03-26T13:35:08.544Z,77.00
2019-03-26T13:37:38.060Z,77.90
2019-03-26T13:40:07.870Z,77.00
2019-03-26T13:42:37.425Z,77.80
2019-03-26T13:45:07.671Z,78.10
2019-03-26T13:47:37.180Z,78.40
2019-03-26T13:50:08.087Z,76.90
2019-03-26T13:52:37.768Z,76.50
2019-03-26T13:55:08.658Z,77.20
2019-03-26T13:57:38.175Z,75.20
2019-03-26T14:00:09.855Z,76.30
2019-03-26T14:02:39.394Z,76.30
2019-03-26T14:05:22.988Z,75.10
2019-03-26T14:07:52.628Z,75.10
2019-03-26T14:10:22.334Z,75.70
2019-03-26T14:12:51.934Z,75.10
2019-03-26T14:15:21.624Z,74.80
2019-03-26T14:17:51.034Z,73.60
2019-03-26T14:20:20.700Z,76.10
2019-03-26T14:22:50.212Z,77.20
2019-03-26T14:25:19.736Z,77.40
2019-03-26T14:27:49.172Z,76.80
2019-03-26T14:30:38.673Z,77.30
2019-03-26T14:33:08.541Z,77.50
2019-03-26T14:35:38.508Z,77.60
2019-03-26T14:38:08.137Z,77.80
2019-03-26T14:40:37.796Z,77.80
2019-03-26T14:43:07.583Z,77.60
2019-03-26T14:45:37.075Z,77.30
2019-03-26T14:48:06.698Z,76.30
2019-03-26T14:50:36.169Z,77.10
2019-03-26T14:53:05.700Z,77.30
2019-03-26T14:55:35.250Z,76.90
2019-03-26T14:58:05.016Z,76.80
2019-03-26T15:00:34.471Z,76.70
2019-03-26T15:03:03.996Z,75.80
2019-03-26T15:05:33.538Z,75.90
2019-03-26T15:08:03.095Z,76.60
2019-03-26T15:10:32.536Z,76.90
2019-03-26T15:13:01.984Z,77.00
2019-03-26T15:15:31.487Z,77.10
2019-03-26T15:18:00.952Z,76.70
2019-03-26T15:20:30.374Z,75.70
2019-03-26T15:23:00.014Z,75.60
2019-03-26T15:25:29.564Z,74.90
2019-03-26T15:27:58.997Z,75.60
2019-03-26T15:30:28.430Z,76.10
2019-03-26T15:32:57.925Z,76.20
2019-03-26T15:35:27.454Z,75.30
2019-03-26T15:37:56.857Z,75.70
2019-03-26T15:40:26.356Z,75.80
2019-03-26T15:42:55.926Z,75.10
2019-03-26T15:45:25.406Z,75.10
2019-03-26T15:47:54.960Z,75.30
2019-03-26T15:50:44.998Z,75.40
2019-03-26T15:53:14.950Z,75.60
2019-03-26T15:55:44.617Z,75.90
2019-03-26T15:58:14.144Z,76.00
2019-03-26T16:00:43.606Z,74.90
2019-03-26T16:03:13.088Z,75.70
2019-03-26T16:05:42.478Z,75.60
2019-03-26T16:08:11.901Z,74.90
2019-03-26T16:10:41.505Z,74.80
2019-03-26T16:13:11.006Z,75.30
2019-03-26T16:15:44.793Z,75.10
2019-03-26T16:18:11.610Z,75.50
2019-03-26T16:20:41.058Z,75.90
2019-03-26T16:23:10.713Z,75.90
2019-03-26T16:25:40.209Z,76.10
2019-03-26T16:28:09.680Z,76.30
2019-03-26T16:30:39.106Z,75.60
2019-03-26T16:33:08.666Z,75.60
2019-03-26T16:35:40.246Z,75.50
2019-03-26T16:38:09.506Z,75.70
2019-03-26T16:40:38.985Z,75.90
2019-03-26T16:43:08.460Z,75.50
2019-03-26T16:45:38.028Z,76.50
2019-03-26T16:48:07.534Z,75.90
2019-03-26T16:50:37.146Z,75.90
2019-03-26T16:53:07.012Z,75.90
2019-03-26T16:55:36.571Z,75.90
2019-03-26T16:58:06.068Z,75.60
2019-03-26T17:00:35.778Z,75.80
2019-03-26T17:03:05.215Z,75.60
2019-03-26T17:05:34.904Z,75.90
2019-03-26T17:08:04.623Z,76.10
2019-03-26T17:10:34.130Z,75.40
2019-03-26T17:13:03.646Z,75.70
2019-03-26T17:15:33.032Z,75.40
2019-03-26T17:18:02.632Z,74.50
2019-03-26T17:20:32.170Z,75.10
2019-03-26T17:23:01.625Z,75.10
2019-03-26T17:25:31.197Z,74.80
2019-03-26T17:28:00.755Z,75.10
2019-03-26T17:30:30.265Z,75.30
2019-03-26T17:32:59.830Z,74.50
2019-03-26T17:35:30.215Z,74.90
2019-03-26T17:38:00.498Z,75.10
2019-03-26T17:40:30.057Z,75.40
2019-03-26T17:42:59.463Z,75.20
2019-03-26T17:45:29.166Z,75.00
2019-03-26T17:47:58.641Z,75.10
2019-03-26T17:50:28.065Z,75.10
2019-03-26T17:52:57.561Z,75.00
2019-03-26T17:55:27.017Z,74.80
2019-03-26T17:57:56.515Z,74.60
2019-03-26T18:00:40.603Z,74.70
2019-03-26T18:03:10.413Z,74.50
2019-03-26T18:05:39.965Z,74.50
2019-03-26T18:08:09.469Z,74.30
2019-03-26T18:10:38.972Z,74.70
2019-03-26T18:13:08.437Z,74.60
2019-03-26T18:15:37.873Z,74.60
2019-03-26T18:18:07.307Z,74.50
2019-03-26T18:20:36.907Z,74.60
2019-03-26T18:23:06.404Z,74.70
2019-03-26T18:25:35.960Z,74.70
2019-03-26T18:28:05.499Z,74.40
2019-03-26T18:30:34.924Z,74.40
2019-03-26T18:33:04.493Z,74.40
2019-03-26T18:35:33.897Z,74.40
2019-03-26T18:38:04.446Z,74.50
2019-03-26T18:40:33.863Z,74.60
2019-03-26T18:43:03.318Z,74.80
2019-03-26T18:45:32.775Z,74.60
2019-03-26T18:48:02.233Z,74.60
2019-03-26T18:50:31.734Z,74.40
2019-03-26T18:53:01.341Z,74.60
2019-03-26T18:55:30.845Z,74.60
2019-03-26T18:58:00.372Z,74.60
2019-03-26T19:00:34.128Z,74.50
2019-03-26T19:03:04.025Z,74.50
2019-03-26T19:05:33.528Z,74.40
2019-03-26T19:08:03.155Z,74.60
2019-03-26T19:10:33.919Z,74.60
2019-03-26T19:13:03.610Z,74.60
2019-03-26T19:15:33.141Z,74.60
2019-03-26T19:18:02.575Z,74.70
2019-03-26T19:20:32.187Z,74.70
2019-03-26T19:23:01.614Z,74.70
2019-03-26T19:25:31.145Z,74.80
2019-03-26T19:28:00.712Z,74.60
2019-03-26T19:30:30.295Z,74.50
2019-03-26T19:32:59.778Z,74.60
2019-03-26T19:35:29.463Z,74.70
2019-03-26T19:37:58.968Z,74.60
2019-03-26T19:40:28.441Z,74.40
2019-03-26T19:43:10.174Z,74.50
2019-03-26T19:45:28.939Z,74.40
2019-03-26T19:47:58.349Z,74.50
2019-03-26T19:50:27.757Z,74.60
2019-03-26T19:52:57.289Z,74.80
2019-03-26T19:55:26.835Z,74.60
2019-03-26T19:57:56.246Z,74.70
2019-03-26T20:00:26.943Z,74.60
2019-03-26T20:02:56.538Z,75.60
2019-03-26T20:05:26.063Z,75.00
2019-03-26T20:07:55.481Z,74.90
2019-03-26T20:10:25.027Z,75.00
2019-03-26T20:12:54.901Z,75.10
2019-03-26T20:15:24.433Z,75.10
2019-03-26T20:17:53.853Z,75.10
2019-03-26T20:20:23.453Z,75.30
2019-03-26T20:22:52.937Z,75.50
2019-03-26T20:25:22.438Z,75.40
2019-03-26T20:27:51.872Z,75.70
2019-03-26T20:30:21.539Z,75.70
2019-03-26T20:32:50.997Z,75.90
2019-03-26T20:35:20.461Z,76.10
2019-03-26T20:37:49.975Z,76.10
2019-03-26T20:40:19.501Z,76.20
2019-03-26T20:42:49.019Z,76.20
2019-03-26T20:45:18.877Z,76.20
2019-03-26T20:47:48.380Z,76.30
2019-03-26T20:50:19.631Z,76.40
2019-03-26T20:52:49.100Z,76.50
2019-03-26T20:55:21.622Z,76.50
2019-03-26T20:57:51.271Z,76.60
2019-03-26T21:00:37.782Z,76.80
2019-03-26T21:03:07.560Z,77.80
2019-03-26T21:05:37.110Z,77.80
2019-03-26T21:08:06.697Z,77.70
2019-03-26T21:10:36.996Z,77.50
2019-03-26T21:13:06.463Z,77.70
2019-03-26T21:15:35.991Z,77.50
2019-03-26T21:18:05.469Z,77.60
2019-03-26T21:20:34.899Z,77.50
2019-03-26T21:23:04.551Z,77.50
2019-03-26T21:25:34.099Z,77.50
2019-03-26T21:28:03.632Z,77.50
2019-03-26T21:30:33.063Z,77.60
2019-03-26T21:33:02.569Z,77.50
2019-03-26T21:35:32.067Z,77.50
2019-03-26T21:38:01.495Z,77.50
2019-03-26T21:40:31.074Z,77.50
2019-03-26T21:43:00.590Z,77.50
2019-03-26T21:45:34.819Z,77.60
2019-03-26T21:48:06.669Z,77.60
2019-03-26T21:50:36.264Z,77.50
2019-03-26T21:53:06.004Z,77.60
2019-03-26T21:55:35.434Z,77.70
2019-03-26T21:58:04.899Z,77.50
2019-03-26T22:00:34.496Z,77.60
2019-03-26T22:03:04.139Z,77.70
2019-03-26T22:05:33.645Z,77.70
2019-03-26T22:08:03.138Z,77.70
2019-03-26T22:10:32.558Z,77.60
2019-03-26T22:13:01.945Z,77.60
2019-03-26T22:15:31.501Z,77.60
2019-03-26T22:18:00.901Z,77.60
2019-03-26T22:20:30.508Z,77.40
2019-03-26T22:23:00.309Z,77.30
2019-03-26T22:25:29.876Z,77.30
2019-03-26T22:27:59.429Z,77.30
2019-03-26T22:30:28.922Z,77.30
2019-03-26T22:32:58.412Z,77.20
2019-03-26T22:35:27.893Z,77.20
2019-03-26T22:37:57.404Z,77.10
2019-03-26T22:40:26.898Z,76.90
2019-03-26T22:42:56.497Z,76.80
2019-03-26T22:45:26.098Z,76.80
2019-03-26T22:47:55.585Z,76.90
2019-03-26T22:50:24.988Z,76.90
2019-03-26T22:52:54.621Z,77.00
2019-03-26T22:55:24.100Z,77.00
2019-03-26T22:57:53.631Z,76.90
2019-03-26T23:00:23.389Z,76.80
2019-03-26T23:02:52.836Z,76.80
2019-03-26T23:05:22.290Z,76.90
2019-03-26T23:07:51.736Z,77.10
2019-03-26T23:10:21.448Z,77.30
2019-03-26T23:12:50.835Z,77.50
2019-03-26T23:15:24.956Z,77.60
2019-03-26T23:17:54.435Z,77.70
2019-03-26T23:20:24.115Z,77.80
2019-03-26T23:22:53.621Z,78.50
2019-03-26T23:25:23.097Z,77.90
2019-03-26T23:27:53.904Z,78.00
2019-03-26T23:30:23.334Z,78.00
2019-03-26T23:32:54.517Z,78.20
2019-03-26T23:35:23.992Z,78.30
2019-03-26T23:37:55.192Z,78.40
2019-03-26T23:40:24.624Z,78.40
2019-03-26T23:42:54.056Z,78.40
2019-03-26T23:45:23.564Z,78.40
2019-03-26T23:47:53.004Z,78.30
2019-03-26T23:50:22.457Z,78.40
2019-03-26T23:52:51.812Z,78.40
2019-03-26T23:55:21.276Z,78.30
2019-03-26T23:57:50.718Z,78.30
